Time;durP1;ratioP1;P1;durP2;ratioP2;P2;SDS_P1;SDS_P2;PMS_P1;PMS_P2;Temp;Humidity;BMP_temperature;BMP_pressure;BME280_temperature;BME280_humidity;BME280_pressure;Samples;Min_cycle;Max_cycle;Signal;HPM_P1;HPM_P2
2022/11/05 00:10:42;;;;;;;6.22;3.58;;;;;;;9.91;nan;100248.06;5025387;28;20255;-65
2022/11/05 00:18:36;;;;;;;4.57;3.38;;;;;;;9.90;nan;100255.16;5026060;28;20040;-65
2022/11/05 00:21:01;;;;;;;4.90;3.65;;;;;;;9.93;nan;100261.94;5026134;28;20046;-65
2022/11/05 00:26:11;;;;;;;6.35;3.53;;;;;;;9.95;nan;100270.53;5027779;28;20044;-65
2022/11/05 00:28:39;;;;;;;6.00;4.50;;;;;;;9.91;nan;100267.38;5025498;28;20037;-64
2022/11/05 00:31:10;;;;;;;6.57;4.55;;;;;;;9.89;nan;100265.88;5025785;28;20049;-65
2022/11/05 00:33:37;;;;;;;6.72;4.53;;;;;;;9.87;nan;100268.69;5024209;28;20124;-65
2022/11/05 00:36:03;;;;;;;6.72;4.65;;;;;;;9.82;nan;100267.47;5024705;28;20453;-64
2022/11/05 00:38:29;;;;;;;5.35;4.28;;;;;;;9.77;nan;100281.97;5027022;28;20029;-65
2022/11/05 00:40:55;;;;;;;5.45;4.07;;;;;;;9.71;nan;100277.28;5027561;28;20121;-64
2022/11/05 00:46:04;;;;;;;5.95;4.28;;;;;;;9.70;nan;100286.22;5029113;28;20041;-64
2022/11/05 00:51:13;;;;;;;6.13;4.20;;;;;;;9.67;nan;100301.50;5024462;28;20083;-64
2022/11/05 00:53:38;;;;;;;5.53;3.90;;;;;;;9.66;nan;100298.03;5032669;28;20026;-64
2022/11/05 00:56:03;;;;;;;5.53;4.03;;;;;;;9.66;nan;100305.97;5025346;28;20045;-64
2022/11/05 00:58:29;;;;;;;6.18;4.20;;;;;;;9.62;nan;100301.13;5026083;28;20303;-64
2022/11/05 01:00:56;;;;;;;5.95;4.00;;;;;;;9.60;nan;100305.72;5026000;28;20041;-64
2022/11/05 01:03:26;;;;;;;5.28;3.92;;;;;;;9.62;nan;100309.88;5025435;28;20045;-64
2022/11/05 01:05:58;;;;;;;4.18;3.20;;;;;;;9.63;nan;100308.91;5026183;28;20030;-64
2022/11/05 01:08:24;;;;;;;;;;;;;;;9.57;nan;100307.69;5026761;28;20042;-65
2022/11/05 01:10:55;;;;;;;6.75;4.28;;;;;;;9.52;nan;100302.03;5029241;28;19917;-64
2022/11/05 01:13:26;;;;;;;4.43;3.63;;;;;;;9.50;nan;100301.34;5028161;28;20029;-64
2022/11/05 01:15:52;;;;;;;5.43;3.72;;;;;;;9.50;nan;100311.09;5027219;28;20030;-64
2022/11/05 01:18:20;;;;;;;4.75;3.58;;;;;;;9.49;nan;100310.25;5027036;28;20037;-64
2022/11/05 01:20:45;;;;;;;4.43;3.40;;;;;;;9.49;nan;100312.06;5029861;28;20124;-64
2022/11/05 01:23:11;;;;;;;4.95;3.70;;;;;;;9.45;nan;100311.53;5029043;28;20203;-64
2022/11/05 01:25:36;;;;;;;6.28;4.00;;;;;;;9.44;nan;100314.31;5029642;28;20654;-64
2022/11/05 01:28:03;;;;;;;4.80;3.75;;;;;;;9.42;nan;100321.56;5028307;28;20072;-64
2022/11/05 01:30:28;;;;;;;6.40;3.80;;;;;;;9.39;nan;100322.69;5027757;28;20046;-65
2022/11/05 01:32:53;;;;;;;4.88;3.50;;;;;;;9.41;nan;100322.53;5027887;28;20078;-64
2022/11/05 01:35:19;;;;;;;4.22;2.83;;;;;;;9.41;nan;100326.00;5029150;28;20038;-64
2022/11/05 01:37:45;;;;;;;3.88;2.90;;;;;;;9.41;nan;100326.00;5028118;28;20309;-64
2022/11/05 01:40:14;;;;;;;4.57;3.40;;;;;;;9.42;nan;100329.50;5028140;28;20111;-66
2022/11/05 01:42:39;;;;;;;3.83;3.05;;;;;;;9.41;nan;100328.63;5028948;28;20037;-62
2022/11/05 01:45:18;;;;;;;4.38;3.42;;;;;;;9.41;nan;100330.44;5029370;28;20037;-64
2022/11/05 01:48:09;;;;;;;4.05;3.20;;;;;;;9.38;nan;100323.66;5028327;28;20429;-64
2022/11/05 01:50:56;;;;;;;3.80;2.67;;;;;;;9.38;nan;100330.75;5027296;28;20037;-64
2022/11/05 01:53:31;;;;;;;4.18;3.10;;;;;;;9.35;nan;100345.09;5028120;28;20438;-64
2022/11/05 01:56:08;;;;;;;3.50;2.75;;;;;;;9.32;nan;100340.94;5029395;28;20280;-64
2022/11/05 01:58:41;;;;;;;4.30;3.13;;;;;;;9.29;nan;100343.84;5032421;28;20083;-65
2022/11/05 02:01:06;;;;;;;4.72;3.50;;;;;;;9.27;nan;100348.47;5027161;28;20337;-64
2022/11/05 02:03:32;;;;;;;4.72;3.20;;;;;;;9.28;nan;100349.28;5027240;28;20029;-64
2022/11/05 02:06:00;;;;;;;4.45;3.50;;;;;;;9.27;nan;100358.16;5029640;28;20381;-64
2022/11/05 02:08:44;;;;;;;5.55;3.90;;;;;;;9.25;nan;100354.88;5027956;28;20075;-64
2022/11/05 02:11:13;;;;;;;4.63;3.55;;;;;;;9.26;nan;100359.97;5021452;28;20049;-64
2022/11/05 02:13:39;;;;;;;5.50;3.63;;;;;;;9.28;nan;100354.56;5025632;28;20361;-64
2022/11/05 02:16:26;;;;;;;4.82;3.00;;;;;;;9.30;nan;100363.16;5027596;28;20648;-65
2022/11/05 02:19:17;;;;;;;4.95;3.22;;;;;;;9.29;nan;100356.22;5027880;28;20051;-65
2022/11/05 02:22:18;;;;;;;4.05;3.03;;;;;;;9.28;nan;100365.94;5026464;28;20088;-64
2022/11/05 02:25:05;;;;;;;5.38;3.40;;;;;;;9.32;nan;100358.59;5032848;28;20102;-65
2022/11/05 02:27:49;;;;;;;4.05;3.10;;;;;;;9.36;nan;100363.38;5027864;28;20041;-64
2022/11/05 02:30:35;;;;;;;4.57;3.40;;;;;;;9.35;nan;100372.28;5026778;28;20041;-65
2022/11/05 02:33:20;;;;;;;4.78;3.42;;;;;;;9.35;nan;100363.56;5019674;28;20503;-65
2022/11/05 02:36:01;;;;;;;4.75;3.30;;;;;;;9.37;nan;100374.78;5027963;28;20037;-64
2022/11/05 02:38:52;;;;;;;5.72;3.90;;;;;;;9.35;nan;100372.28;5019992;28;20349;-65
2022/11/05 02:41:45;;;;;;;4.95;3.45;;;;;;;9.39;nan;100370.22;5026347;28;20038;-64
2022/11/05 02:44:33;;;;;;;4.63;3.00;;;;;;;9.41;nan;100370.03;5026730;28;20025;-65
2022/11/05 02:47:11;;;;;;;5.13;3.95;;;;;;;9.42;nan;100375.19;5026775;28;20033;-65
2022/11/05 02:49:50;;;;;;;7.53;5.07;;;;;;;9.40;nan;100382.41;5027341;28;20121;-65
2022/11/05 02:52:23;;;;;;;6.97;5.03;;;;;;;9.39;nan;100388.69;5025461;28;20049;-65
2022/11/05 02:54:55;;;;;;;6.75;4.35;;;;;;;9.41;nan;100393.78;5027302;28;20091;-65
2022/11/05 02:57:21;;;;;;;5.32;4.22;;;;;;;9.37;nan;100388.00;5018713;28;20041;-65
2022/11/05 02:59:46;;;;;;;5.50;4.18;;;;;;;9.36;nan;100381.03;5031851;28;20080;-64
2022/11/05 03:02:11;;;;;;;5.20;3.60;;;;;;;9.39;nan;100385.19;5026476;28;20068;-65
2022/11/05 03:04:37;;;;;;;5.10;3.63;;;;;;;9.39;nan;100382.53;5026316;28;20068;-64
2022/11/05 03:07:17;;;;;;;4.57;3.47;;;;;;;9.42;nan;100385.75;5027419;28;20099;-64
2022/11/05 03:10:12;;;;;;;4.82;3.72;;;;;;;9.42;nan;100400.75;5024521;28;20045;-64
2022/11/05 03:12:46;;;;;;;4.55;3.25;;;;;;;9.45;nan;100400.44;5025852;28;20038;-65
2022/11/05 03:15:32;;;;;;;5.55;3.90;;;;;;;9.44;nan;100401.41;5025437;28;20439;-65
2022/11/05 03:18:02;;;;;;;5.45;3.70;;;;;;;9.43;nan;100399.75;5027014;28;20124;-64
2022/11/05 03:20:35;;;;;;;5.85;4.00;;;;;;;9.38;nan;100402.00;5026459;28;20095;-65
2022/11/05 03:23:28;;;;;;;6.57;4.53;;;;;;;9.37;nan;100409.09;5025624;28;20145;-64
2022/11/05 03:26:10;;;;;;;5.60;4.57;;;;;;;9.38;nan;100410.75;5023820;28;20037;-64
2022/11/05 03:28:40;;;;;;;7.68;4.32;;;;;;;9.36;nan;100413.53;5023165;28;20441;-65
2022/11/05 03:31:07;;;;;;;7.80;5.60;;;;;;;9.32;nan;100416.63;5026710;28;20048;-64
2022/11/05 03:33:35;;;;;;;8.25;6.10;;;;;;;9.26;nan;100415.38;5026424;28;20041;-64
2022/11/05 03:36:06;;;;;;;8.73;5.80;;;;;;;9.26;nan;100423.31;5026290;28;20036;-64
2022/11/05 03:38:36;;;;;;;10.85;6.13;;;;;;;9.24;nan;100413.88;5026765;28;20120;-64
2022/11/05 03:41:08;;;;;;;8.38;5.65;;;;;;;9.22;nan;100427.19;5026560;28;20045;-65
2022/11/05 03:43:39;;;;;;;7.75;6.00;;;;;;;9.18;nan;100425.84;5016065;28;20050;-65
2022/11/05 03:46:33;;;;;;;7.77;6.00;;;;;;;9.19;nan;100438.06;5026944;28;20798;-65
2022/11/05 03:49:01;;;;;;;9.40;7.25;;;;;;;9.16;nan;100437.53;5013744;28;20041;-64
2022/11/05 03:51:52;;;;;;;9.20;6.20;;;;;;;9.18;nan;100435.59;5024014;28;20510;-64
2022/11/05 03:54:17;;;;;;;11.48;7.63;;;;;;;9.14;nan;100451.69;5026932;28;20049;-65
2022/11/05 03:57:09;;;;;;;9.60;6.80;;;;;;;9.16;nan;100446.25;5026177;28;20033;-64
2022/11/05 03:59:41;;;;;;;8.38;5.90;;;;;;;9.20;nan;100447.66;5031079;28;20119;-65
2022/11/05 04:02:06;;;;;;;10.57;6.10;;;;;;;9.20;nan;100457.34;5024337;28;20050;-65
2022/11/05 04:04:32;;;;;;;7.72;5.88;;;;;;;9.24;nan;100464.00;5024344;28;20525;-65
2022/11/05 04:15:09;;;;;;;7.80;6.22;;;;;;;9.29;nan;100465.22;5026476;28;20045;-64
2022/11/05 04:17:34;;;;;;;12.38;7.05;;;;;;;9.31;nan;100463.28;5024631;28;20033;-65
2022/11/05 04:25:27;;;;;;;16.15;9.93;;;;;;;9.17;nan;100469.03;5030961;28;20084;-64
2022/11/05 04:27:52;;;;;;;16.08;10.23;;;;;;;9.14;nan;100474.59;5021491;28;20029;-64
2022/11/05 04:30:19;;;;;;;13.23;8.93;;;;;;;9.13;nan;100473.78;5023710;28;20051;-65
2022/11/05 04:32:59;;;;;;;14.32;8.10;;;;;;;9.14;nan;100475.41;5020235;28;20053;-65
2022/11/05 04:35:26;;;;;;;10.70;7.07;;;;;;;9.16;nan;100477.09;5027877;28;20049;-64
2022/11/05 04:37:52;;;;;;;10.52;6.90;;;;;;;9.17;nan;100476.94;5027691;28;20116;-65
2022/11/05 04:40:17;;;;;;;13.50;9.10;;;;;;;9.15;nan;100486.78;5027277;28;20236;-65
2022/11/05 04:42:42;;;;;;;11.52;8.60;;;;;;;9.11;nan;100486.28;5023802;28;20084;-65
2022/11/05 04:45:07;;;;;;;14.43;9.30;;;;;;;9.08;nan;100486.56;5034938;28;20045;-64
2022/11/05 04:47:33;;;;;;;11.00;7.25;;;;;;;9.10;nan;100486.41;5031276;28;20622;-64
2022/11/05 04:49:58;;;;;;;12.32;8.07;;;;;;;9.07;nan;100486.69;5031271;28;20520;-65
2022/11/05 04:52:24;;;;;;;11.15;7.78;;;;;;;9.03;nan;100491.41;5030041;28;20045;-64
2022/11/05 04:54:49;;;;;;;12.13;8.27;;;;;;;9.00;nan;100489.06;5031009;28;20229;-64
2022/11/05 04:57:14;;;;;;;12.60;8.00;;;;;;;8.99;nan;100495.31;5031351;28;20042;-65
2022/11/05 04:59:40;;;;;;;11.65;7.95;;;;;;;8.91;nan;100493.41;5044709;28;20057;-64
2022/11/05 05:02:05;;;;;;;11.85;7.70;;;;;;;8.88;nan;100493.66;5029011;28;20068;-65
2022/11/05 05:04:30;;;;;;;11.25;7.82;;;;;;;8.87;nan;100493.81;5030480;28;20494;-64
2022/11/05 05:06:56;;;;;;;10.77;7.18;;;;;;;8.84;nan;100497.59;5030943;28;20067;-64
2022/11/05 05:09:21;;;;;;;9.57;6.40;;;;;;;8.83;nan;100502.97;5023466;28;20045;-64
2022/11/05 05:11:46;;;;;;;11.10;6.75;;;;;;;8.79;nan;100498.97;5026799;28;20075;-64
2022/11/05 05:14:11;;;;;;;9.83;6.43;;;;;;;8.78;nan;100502.56;5030433;28;20030;-65
2022/11/05 05:16:37;;;;;;;10.48;7.18;;;;;;;8.71;nan;100505.75;5029414;28;20287;-64
2022/11/05 05:19:02;;;;;;;10.18;7.10;;;;;;;8.71;nan;100504.94;5029694;28;20409;-64
2022/11/05 05:21:40;;;;;;;9.25;6.88;;;;;;;8.71;nan;100507.56;5030409;28;20083;-64
2022/11/05 05:24:11;;;;;;;8.63;5.63;;;;;;;8.70;nan;100517.28;5033210;28;20072;-65
2022/11/05 05:26:39;;;;;;;11.40;7.30;;;;;;;8.57;nan;100516.72;5012605;28;20038;-65
2022/11/05 05:29:04;;;;;;;10.60;6.72;;;;;;;8.52;nan;100513.69;5030318;28;20044;-64
2022/11/05 05:31:30;;;;;;;9.73;6.50;;;;;;;8.49;nan;100522.69;5030314;28;20038;-65
2022/11/05 05:33:55;;;;;;;10.80;6.68;;;;;;;8.50;nan;100528.81;5030592;28;20099;-65
2022/11/05 05:36:21;;;;;;;8.35;5.65;;;;;;;8.48;nan;100531.56;5030312;28;20051;-65
2022/11/05 05:38:47;;;;;;;6.93;5.15;;;;;;;8.46;nan;100530.03;5030662;28;20041;-64
2022/11/05 05:41:12;;;;;;;7.13;4.88;;;;;;;8.46;nan;100532.66;5030314;28;20130;-65
2022/11/05 05:43:38;;;;;;;6.43;4.68;;;;;;;8.43;nan;100536.41;5030087;28;20158;-64
2022/11/05 05:46:06;;;;;;;9.57;5.53;;;;;;;8.44;nan;100539.91;5038026;28;20051;-66
2022/11/05 05:48:32;;;;;;;6.22;4.22;;;;;;;8.45;nan;100541.56;5032277;28;20041;-64
2022/11/05 05:51:01;;;;;;;5.68;3.80;;;;;;;8.45;nan;100547.66;5033698;28;20032;-65
2022/11/05 05:53:28;;;;;;;5.88;3.97;;;;;;;8.43;nan;100548.75;5041055;28;20044;-65
2022/11/05 05:55:54;;;;;;;7.13;4.20;;;;;;;8.38;nan;100554.41;5029283;28;20047;-65
2022/11/05 05:58:21;;;;;;;5.75;3.83;;;;;;;8.39;nan;100558.72;5042517;28;20040;-65
2022/11/05 06:00:46;;;;;;;6.85;3.55;;;;;;;8.40;nan;100562.22;5034008;28;20676;-65
2022/11/05 06:03:11;;;;;;;9.15;5.18;;;;;;;8.36;nan;100564.25;5029619;28;20498;-64
2022/11/05 06:05:36;;;;;;;6.60;4.30;;;;;;;8.33;nan;100572.44;5029923;28;20053;-64
2022/11/05 06:08:02;;;;;;;5.97;4.03;;;;;;;8.36;nan;100580.06;5030007;28;20283;-64
2022/11/05 06:10:27;;;;;;;5.68;3.78;;;;;;;8.35;nan;100585.50;5032505;28;20029;-65
2022/11/05 06:12:52;;;;;;;6.30;4.00;;;;;;;8.35;nan;100581.03;5029389;28;20034;-64
2022/11/05 06:15:19;;;;;;;5.18;3.58;;;;;;;8.36;nan;100579.22;5029519;28;20038;-64
2022/11/05 06:17:44;;;;;;;5.43;3.42;;;;;;;8.36;nan;100581.88;5029564;28;20044;-64
2022/11/05 06:20:11;;;;;;;4.97;3.55;;;;;;;8.36;nan;100593.25;5029993;28;20029;-65
2022/11/05 06:22:37;;;;;;;5.13;3.50;;;;;;;8.38;nan;100595.75;5034050;28;20040;-65
2022/11/05 06:25:03;;;;;;;4.22;2.92;;;;;;;8.43;nan;100593.56;5043418;28;20041;-64
2022/11/05 06:27:29;;;;;;;6.55;4.22;;;;;;;8.41;nan;100596.31;5027763;28;20041;-64
2022/11/05 06:29:55;;;;;;;5.82;3.92;;;;;;;8.37;nan;100600.19;5029216;28;20545;-65
2022/11/05 06:32:20;;;;;;;5.85;3.60;;;;;;;8.35;nan;100604.75;5031334;28;20242;-65
2022/11/05 06:34:45;;;;;;;5.43;3.50;;;;;;;8.38;nan;100611.56;5028313;28;20041;-65
2022/11/05 06:37:11;;;;;;;5.13;3.17;;;;;;;8.42;nan;100619.09;5028112;28;20572;-64
2022/11/05 06:39:36;;;;;;;5.88;3.30;;;;;;;8.45;nan;100620.63;5027077;28;20029;-64
2022/11/05 06:42:01;;;;;;;5.10;3.53;;;;;;;8.43;nan;100627.81;5026979;28;20060;-64
2022/11/05 06:44:27;;;;;;;4.93;3.40;;;;;;;8.43;nan;100628.66;5028116;28;20041;-64
2022/11/05 06:46:52;;;;;;;5.35;3.30;;;;;;;8.41;nan;100633.22;5027727;28;20104;-65
2022/11/05 06:49:17;;;;;;;4.70;3.50;;;;;;;8.37;nan;100636.25;5027437;28;20497;-64
2022/11/05 06:51:42;;;;;;;5.70;4.03;;;;;;;8.34;nan;100641.75;5026083;28;20100;-65
2022/11/05 06:54:08;;;;;;;4.82;3.10;;;;;;;8.37;nan;100641.53;5031253;28;20057;-65
2022/11/05 06:56:33;;;;;;;5.50;3.45;;;;;;;8.34;nan;100641.75;5028485;28;20046;-64
2022/11/05 06:58:58;;;;;;;5.00;3.47;;;;;;;8.35;nan;100646.09;5028705;28;20108;-64
2022/11/05 07:01:24;;;;;;;5.28;3.35;;;;;;;8.35;nan;100654.81;5027840;28;20044;-65
2022/11/05 07:03:50;;;;;;;5.05;3.38;;;;;;;8.39;nan;100663.28;5029133;28;20049;-64
2022/11/05 07:06:15;;;;;;;4.63;3.30;;;;;;;8.43;nan;100664.72;5028356;28;20037;-65
2022/11/05 07:08:40;;;;;;;4.38;3.17;;;;;;;8.45;nan;100671.50;5028400;28;20034;-64
2022/11/05 07:11:06;;;;;;;4.50;2.60;;;;;;;8.47;nan;100672.22;5027456;28;20056;-64
2022/11/05 07:13:31;;;;;;;3.97;2.47;;;;;;;8.54;nan;100671.69;5027945;28;20037;-64
2022/11/05 07:15:56;;;;;;;3.75;2.40;;;;;;;8.57;nan;100671.41;5029172;28;20238;-65
2022/11/05 07:18:22;;;;;;;4.05;2.55;;;;;;;8.59;nan;100675.56;5029122;28;20155;-65
2022/11/05 07:20:48;;;;;;;3.80;2.58;;;;;;;8.63;nan;100678.78;5028821;28;20120;-64
2022/11/05 07:23:14;;;;;;;3.78;2.55;;;;;;;8.65;nan;100685.59;5031935;28;20064;-65
2022/11/05 07:25:40;;;;;;;4.22;2.42;;;;;;;8.67;nan;100693.34;5033853;28;20390;-64
2022/11/05 07:28:07;;;;;;;3.85;2.42;;;;;;;8.69;nan;100697.50;5027022;28;20033;-65
2022/11/05 07:30:33;;;;;;;4.95;2.45;;;;;;;8.74;nan;100701.56;5024865;28;20055;-64
2022/11/05 07:32:59;;;;;;;3.00;2.10;;;;;;;8.76;nan;100703.09;5026342;28;20166;-64
2022/11/05 07:35:25;;;;;;;3.92;2.70;;;;;;;8.78;nan;100713.50;5027176;28;20079;-65
2022/11/05 07:37:52;;;;;;;5.10;3.10;;;;;;;8.78;nan;100718.78;5027223;28;20033;-64
2022/11/05 07:40:19;;;;;;;4.70;3.15;;;;;;;8.82;nan;100712.25;5023878;28;20052;-65
2022/11/05 07:42:47;;;;;;;4.25;2.75;;;;;;;8.86;nan;100721.56;5025886;28;20190;-64
2022/11/05 07:45:14;;;;;;;4.30;2.70;;;;;;;8.93;nan;100720.03;5019888;28;20041;-65
2022/11/05 07:47:45;;;;;;;3.17;2.17;;;;;;;9.01;nan;100722.84;5025973;28;20067;-64
2022/11/05 07:50:11;;;;;;;4.80;2.22;;;;;;;9.06;nan;100731.19;5025020;28;20034;-64
2022/11/05 07:52:36;;;;;;;4.55;2.40;;;;;;;9.13;nan;100732.31;5027453;28;20039;-65
2022/11/05 07:55:01;;;;;;;6.63;3.35;;;;;;;9.13;nan;100737.56;5026256;28;20131;-65
2022/11/05 07:57:26;;;;;;;3.78;2.70;;;;;;;9.18;nan;100739.81;5026774;28;20063;-64
2022/11/05 07:59:52;;;;;;;5.70;3.20;;;;;;;9.20;nan;100742.28;5029706;28;20103;-64
2022/11/05 08:02:17;;;;;;;5.85;3.58;;;;;;;9.24;nan;100741.06;5024024;28;20041;-65
2022/11/05 08:04:42;;;;;;;4.28;3.03;;;;;;;9.32;nan;100743.84;5026220;28;20401;-64
2022/11/05 08:07:08;;;;;;;4.22;2.60;;;;;;;9.41;nan;100743.00;5026950;28;20045;-64
2022/11/05 08:09:33;;;;;;;4.13;2.92;;;;;;;9.44;nan;100750.66;5026005;28;20119;-64
2022/11/05 08:11:58;;;;;;;5.55;3.72;;;;;;;9.42;nan;100757.88;5026272;28;20048;-65
2022/11/05 08:14:24;;;;;;;5.28;3.72;;;;;;;9.41;nan;100758.81;5024403;28;20044;-65
2022/11/05 08:16:49;;;;;;;7.20;4.70;;;;;;;9.35;nan;100765.50;5026105;28;20044;-65
2022/11/05 08:19:14;;;;;;;7.00;4.88;;;;;;;9.30;nan;100761.63;5025965;28;20132;-64
2022/11/05 08:21:39;;;;;;;5.82;3.55;;;;;;;9.30;nan;100765.09;5026197;28;20033;-64
2022/11/05 08:24:05;;;;;;;5.40;3.65;;;;;;;9.37;nan;100765.38;5028929;28;20045;-65
2022/11/05 08:26:30;;;;;;;5.00;3.20;;;;;;;9.42;nan;100772.88;5033633;28;20037;-64
2022/11/05 08:28:56;;;;;;;5.60;3.83;;;;;;;9.46;nan;100768.97;4991452;28;20034;-64
2022/11/05 08:31:21;;;;;;;5.15;3.60;;;;;;;9.52;nan;100771.91;5026714;28;20041;-65
2022/11/05 08:33:46;;;;;;;5.45;3.45;;;;;;;9.57;nan;100769.66;5025057;28;20026;-65
2022/11/05 08:36:12;;;;;;;4.70;3.00;;;;;;;9.66;nan;100773.28;5025603;28;20060;-65
2022/11/05 08:38:37;;;;;;;4.32;2.83;;;;;;;9.75;nan;100787.47;5026070;28;20045;-65
2022/11/05 08:41:02;;;;;;;4.00;2.90;;;;;;;9.91;nan;100790.34;5026346;28;20120;-65
2022/11/05 08:43:28;;;;;;;5.00;3.53;;;;;;;10.06;nan;100792.56;5024765;28;20292;-65
2022/11/05 08:45:53;;;;;;;5.03;3.00;;;;;;;10.22;nan;100784.88;5031697;28;20048;-65
2022/11/05 08:48:19;;;;;;;5.25;3.72;;;;;;;10.39;nan;100786.81;5024868;28;20041;-65
2022/11/05 08:50:46;;;;;;;5.88;3.45;;;;;;;10.57;nan;100786.06;5025498;28;20108;-65
2022/11/05 08:53:12;;;;;;;4.07;2.72;;;;;;;10.73;nan;100785.44;5024974;28;20053;-64
2022/11/05 08:55:38;;;;;;;5.65;3.60;;;;;;;10.76;nan;100790.44;5025828;28;20033;-65
2022/11/05 08:58:06;;;;;;;6.13;3.53;;;;;;;10.83;nan;100783.56;5023120;28;20048;-65
2022/11/05 09:00:33;;;;;;;5.25;3.22;;;;;;;11.10;nan;100790.66;5029908;28;20044;-65
2022/11/05 09:03:00;;;;;;;6.32;3.80;;;;;;;11.51;nan;100796.34;5024624;28;20064;-64
2022/11/05 09:05:27;;;;;;;9.20;5.50;;;;;;;11.72;nan;100793.41;5026466;28;20045;-65
2022/11/05 09:07:52;;;;;;;6.85;4.93;;;;;;;11.88;nan;100792.75;5024490;28;20380;-65
2022/11/05 09:10:17;;;;;;;6.40;4.95;;;;;;;11.94;nan;100797.44;5026547;28;20132;-65
2022/11/05 09:12:43;;;;;;;6.60;4.82;;;;;;;11.93;nan;100801.06;5024925;28;20038;-65
2022/11/05 09:15:09;;;;;;;8.00;5.30;;;;;;;12.04;nan;100802.66;5024769;28;20030;-64
2022/11/05 09:17:34;;;;;;;7.68;5.40;;;;;;;12.01;nan;100800.28;5021458;28;20104;-65
2022/11/05 09:20:01;;;;;;;6.35;5.00;;;;;;;12.03;nan;100804.44;5026827;28;20040;-65
2022/11/05 09:22:26;;;;;;;6.80;4.90;;;;;;;12.04;nan;100798.19;5024489;28;20044;-65
2022/11/05 09:24:51;;;;;;;7.53;5.25;;;;;;;11.95;nan;100806.22;5038280;28;20036;-65
2022/11/05 09:27:16;;;;;;;6.10;4.30;;;;;;;11.89;nan;100803.22;5034385;28;20034;-65
2022/11/05 09:29:42;;;;;;;6.15;5.05;;;;;;;11.72;nan;100805.81;5027292;28;20494;-65
2022/11/05 09:32:08;;;;;;;6.82;4.70;;;;;;;11.61;nan;100802.44;5029663;28;20040;-65
2022/11/05 09:34:34;;;;;;;7.88;4.95;;;;;;;11.59;nan;100796.44;5030290;28;20038;-65
2022/11/05 09:36:59;;;;;;;6.75;4.13;;;;;;;11.67;nan;100806.28;5030015;28;20087;-65
2022/11/05 09:39:24;;;;;;;4.90;3.67;;;;;;;11.69;nan;100809.63;5030402;28;20033;-65
2022/11/05 09:41:52;;;;;;;5.28;3.95;;;;;;;11.68;nan;100815.91;5029724;28;20037;-65
2022/11/05 09:44:22;;;;;;;5.85;3.55;;;;;;;11.68;nan;100813.25;5034747;28;20061;-65
2022/11/05 09:46:53;;;;;;;6.38;4.55;;;;;;;11.55;nan;100821.56;5045582;28;20037;-65
2022/11/05 09:49:26;;;;;;;6.38;4.20;;;;;;;11.55;nan;100813.63;5030516;28;20448;-65
2022/11/05 09:51:54;;;;;;;6.70;4.32;;;;;;;11.65;nan;100824.13;5029278;28;20092;-65
2022/11/05 09:54:24;;;;;;;8.05;5.13;;;;;;;11.61;nan;100828.09;5048511;28;20040;-65
2022/11/05 09:56:51;;;;;;;8.48;5.20;;;;;;;11.59;nan;100827.41;5046288;28;20128;-65
2022/11/05 09:59:21;;;;;;;7.35;5.53;;;;;;;11.54;nan;100829.69;5039279;28;20499;-65
2022/11/05 10:01:48;;;;;;;6.40;4.45;;;;;;;11.47;nan;100830.25;5032684;28;20045;-65
2022/11/05 10:04:21;;;;;;;6.32;4.50;;;;;;;11.46;nan;100838.34;5029590;28;20181;-65
2022/11/05 10:06:55;;;;;;;7.85;4.70;;;;;;;11.41;nan;100836.16;5036431;28;20397;-65
2022/11/05 10:09:29;;;;;;;8.60;5.10;;;;;;;11.36;nan;100832.28;5030046;28;20069;-65
2022/11/05 10:11:59;;;;;;;7.57;5.22;;;;;;;11.38;nan;100840.94;5029439;28;20098;-65
2022/11/05 10:14:32;;;;;;;8.05;5.38;;;;;;;11.43;nan;100843.94;5029769;28;20030;-65
2022/11/05 10:17:03;;;;;;;8.43;5.72;;;;;;;11.43;nan;100842.13;5029064;28;20124;-65
2022/11/05 10:20:07;;;;;;;7.25;4.95;;;;;;;11.47;nan;100850.63;5021990;28;20029;-65
2022/11/05 10:22:32;;;;;;;8.15;5.60;;;;;;;11.43;nan;100849.25;5029606;28;20053;-65
2022/11/05 10:24:58;;;;;;;7.53;5.10;;;;;;;11.56;nan;100849.72;5033733;28;20399;-65
2022/11/05 10:27:29;;;;;;;10.13;5.75;;;;;;;11.66;nan;100855.78;5031317;28;20029;-65
2022/11/05 10:29:54;;;;;;;8.27;5.53;;;;;;;11.63;nan;100855.22;5029154;28;20036;-65
2022/11/05 10:32:28;;;;;;;7.18;5.18;;;;;;;11.70;nan;100858.94;5028807;28;20495;-65
2022/11/05 10:34:57;;;;;;;8.90;5.43;;;;;;;11.83;nan;100861.25;5025348;28;20037;-65
2022/11/05 10:37:23;;;;;;;8.55;4.75;;;;;;;12.18;nan;100856.91;5040646;28;20295;-65
2022/11/05 10:39:49;;;;;;;7.28;4.82;;;;;;;12.52;nan;100860.47;5042402;28;20033;-65
2022/11/05 10:42:34;;;;;;;7.47;4.85;;;;;;;12.81;nan;100867.28;5030483;28;20409;-65
2022/11/05 10:45:15;;;;;;;11.05;5.95;;;;;;;12.73;nan;100869.91;5047119;28;20405;-65
2022/11/05 10:47:51;;;;;;;7.43;5.13;;;;;;;12.83;nan;100861.81;5030934;28;20065;-65
2022/11/05 10:50:23;;;;;;;7.45;4.43;;;;;;;13.32;nan;100860.22;5028572;28;20487;-66
2022/11/05 10:52:57;;;;;;;6.78;4.47;;;;;;;13.73;nan;100865.63;5030730;28;20033;-65
2022/11/05 10:55:31;;;;;;;8.95;6.10;;;;;;;13.96;nan;100863.13;5029170;28;20072;-65
2022/11/05 10:58:18;;;;;;;8.68;6.03;;;;;;;14.07;nan;100856.66;5028027;28;20038;-65
2022/11/05 11:00:48;;;;;;;7.47;4.60;;;;;;;14.37;nan;100862.28;5025886;28;20091;-66
2022/11/05 11:03:35;;;;;;;6.70;4.68;;;;;;;14.38;nan;100867.44;5033824;28;20404;-65
2022/11/05 11:06:04;;;;;;;6.32;4.18;;;;;;;14.02;nan;100856.34;5019690;28;20167;-65
2022/11/05 11:08:32;;;;;;;9.18;6.13;;;;;;;13.48;nan;100855.94;5027257;28;20045;-65
2022/11/05 11:11:01;;;;;;;8.52;5.35;;;;;;;13.42;nan;100862.75;5022682;28;20517;-65
2022/11/05 11:13:50;;;;;;;7.50;4.50;;;;;;;13.72;nan;100863.13;5026917;28;20033;-66
2022/11/05 11:16:21;;;;;;;5.40;3.90;;;;;;;14.10;nan;100864.31;5025133;28;20049;-66
2022/11/05 11:18:52;;;;;;;4.80;3.60;;;;;;;14.32;nan;100864.63;5024705;28;20030;-66
2022/11/05 11:21:21;;;;;;;5.10;3.13;;;;;;;14.62;nan;100868.44;5025584;28;20041;-66
2022/11/05 11:23:59;;;;;;;5.55;4.00;;;;;;;14.91;nan;100867.03;5028312;28;20041;-66
2022/11/05 11:26:28;;;;;;;5.45;3.78;;;;;;;15.03;nan;100861.16;5024028;28;20539;-66
2022/11/05 11:29:00;;;;;;;5.82;3.60;;;;;;;15.12;nan;100856.63;5025063;28;20117;-66
2022/11/05 11:31:29;;;;;;;7.00;4.72;;;;;;;15.04;nan;100853.97;5026021;28;20042;-66
2022/11/05 11:34:17;;;;;;;6.90;4.80;;;;;;;14.57;nan;100854.81;5025520;28;20052;-66
2022/11/05 11:36:46;;;;;;;7.70;4.43;;;;;;;14.42;nan;100849.34;5013424;28;20402;-66
2022/11/05 11:39:21;;;;;;;10.65;4.85;;;;;;;14.30;nan;100850.66;5024869;28;20497;-66
2022/11/05 11:41:52;;;;;;;8.90;4.97;;;;;;;14.16;nan;100846.88;5025928;28;20110;-65
2022/11/05 11:44:26;;;;;;;8.20;4.55;;;;;;;14.05;nan;100842.69;5030635;28;20029;-66
2022/11/05 11:46:54;;;;;;;7.13;4.70;;;;;;;14.02;nan;100846.53;5025710;28;20029;-66
2022/11/05 11:49:44;;;;;;;7.40;5.40;;;;;;;13.90;nan;100836.41;5026354;28;20030;-66
2022/11/05 11:52:18;;;;;;;7.85;5.38;;;;;;;13.92;nan;100845.03;5030748;28;20084;-66
2022/11/05 11:54:43;;;;;;;11.30;5.70;;;;;;;13.81;nan;100839.03;5022482;28;20048;-65
2022/11/05 11:57:25;;;;;;;6.88;4.80;;;;;;;13.75;nan;100841.53;5025679;28;20422;-66
2022/11/05 11:59:52;;;;;;;8.10;4.68;;;;;;;13.85;nan;100844.03;5024837;28;20073;-66
2022/11/05 12:02:36;;;;;;;;;;;;;;;13.84;nan;100845.84;5025594;28;20375;-66
2022/11/05 12:05:24;;;;;;;7.95;4.72;;;;;;;13.81;nan;100844.34;5028307;28;20360;-66
2022/11/05 12:07:53;;;;;;;6.60;4.78;;;;;;;13.84;nan;100842.38;5022028;28;20598;-66
2022/11/05 12:10:47;;;;;;;8.15;4.75;;;;;;;13.68;nan;100838.72;5024981;28;20135;-66
2022/11/05 12:13:18;;;;;;;6.75;4.20;;;;;;;13.52;nan;100844.00;5026098;28;20049;-66
2022/11/05 12:15:59;;;;;;;;;;;;;;;13.42;nan;100843.28;5027149;28;20042;-66
2022/11/05 12:18:30;;;;;;;8.50;5.10;;;;;;;13.34;nan;100833.47;5026837;28;20011;-66
2022/11/05 12:21:04;;;;;;;;;;;;;;;13.26;nan;100844.06;5027844;28;20040;-66
2022/11/05 12:24:01;;;;;;;6.18;4.47;;;;;;;13.33;nan;100835.31;5031726;28;19928;-66
2022/11/05 12:26:35;;;;;;;;;;;;;;;13.22;nan;100832.09;5029962;28;20176;-66
2022/11/05 12:29:34;;;;;;;9.25;5.88;;;;;;;13.14;nan;100835.56;5026113;28;19917;-66
2022/11/05 12:32:11;;;;;;;;;;;;;;;13.35;nan;100836.00;5024152;28;20223;-66
2022/11/05 12:34:51;;;;;;;6.88;3.97;;;;;;;13.56;nan;100838.19;5026300;28;19924;-66
2022/11/05 12:37:44;;;;;;;5.53;3.58;;;;;;;13.96;nan;100835.72;5026097;28;20872;-66
2022/11/05 12:40:30;;;;;;;5.00;3.30;;;;;;;14.15;nan;100830.06;5025842;28;20403;-66